Time;durP1;ratioP1;P1;durP2;ratioP2;P2;SDS_P1;SDS_P2;PMS_P1;PMS_P2;Temp;Humidity;BMP_temperature;BMP_pressure;BME280_temperature;BME280_humidity;BME280_pressure;Samples;Min_cycle;Max_cycle;Signal;HPM_P1;HPM_P2
2022/08/25 19:45:54;;;;;;;8.20;3.58;;;21.50;82.80;;;;;;5078094;27;20281;-75
2022/08/25 19:48:19;;;;;;;3.85;3.53;;;21.40;83.20;;;;;;5062192;28;20183;-77
2022/08/25 19:50:45;;;;;;;4.03;3.45;;;21.50;82.00;;;;;;5066960;28;20708;-76
2022/08/25 19:53:11;;;;;;;11.57;4.10;;;21.60;81.70;;;;;;5066917;28;20187;-76
2022/08/25 19:55:36;;;;;;;5.28;3.35;;;21.70;81.40;;;;;;5069783;28;20252;-76
2022/08/25 19:58:02;;;;;;;8.68;3.85;;;21.90;80.90;;;;;;5073637;28;20269;-76
2022/08/25 20:00:31;;;;;;;6.88;3.95;;;22.00;81.20;;;;;;5071623;28;20193;-76
2022/08/25 20:03:01;;;;;;;11.02;3.47;;;22.10;80.50;;;;;;5068046;28;20185;-76
2022/08/25 20:05:28;;;;;;;13.18;3.78;;;22.20;80.40;;;;;;5063531;28;20211;-76
2022/08/25 20:07:55;;;;;;;4.93;2.90;;;22.20;79.90;;;;;;5062938;28;20187;-75
2022/08/25 20:10:24;;;;;;;7.68;3.58;;;22.30;79.20;;;;;;5063620;28;20190;-77
2022/08/25 20:12:50;;;;;;;8.13;3.17;;;22.40;78.90;;;;;;5065016;28;20183;-76
2022/08/25 20:15:16;;;;;;;7.95;3.50;;;22.50;78.90;;;;;;5059012;28;20183;-76
2022/08/25 20:17:42;;;;;;;3.72;3.10;;;22.50;78.60;;;;;;5067491;28;20267;-78
2022/08/25 20:20:11;;;;;;;5.97;3.20;;;22.60;78.20;;;;;;5067354;28;20206;-78
2022/08/25 20:22:37;;;;;;;3.08;2.80;;;22.60;78.30;;;;;;5064622;28;20820;-78
2022/08/25 20:25:10;;;;;;;7.25;3.55;;;22.70;77.90;;;;;;5067779;28;20800;-77
2022/08/25 20:27:42;;;;;;;5.10;2.88;;;22.70;78.40;;;;;;5066973;28;20228;-79
2022/08/25 20:30:12;;;;;;;5.88;2.90;;;22.80;78.00;;;;;;5071340;28;20182;-78
2022/08/25 20:32:39;;;;;;;10.07;3.58;;;22.80;78.00;;;;;;5063458;28;20200;-78
2022/08/25 20:35:07;;;;;;;7.55;3.22;;;22.80;77.70;;;;;;5070562;28;20187;-79
2022/08/25 20:37:33;;;;;;;5.45;3.60;;;22.80;78.00;;;;;;5063979;28;20748;-78
2022/08/25 20:39:59;;;;;;;8.75;3.03;;;22.80;78.00;;;;;;5065390;28;20183;-78
2022/08/25 20:42:24;;;;;;;5.63;2.97;;;22.70;78.50;;;;;;5065413;28;20178;-78
2022/08/25 20:44:50;;;;;;;6.05;2.88;;;22.80;78.40;;;;;;5063615;28;20298;-78
2022/08/25 20:47:19;;;;;;;6.32;2.95;;;22.80;77.70;;;;;;5070202;28;20261;-78
2022/08/25 20:49:46;;;;;;;7.40;3.45;;;22.80;77.40;;;;;;5065626;28;20182;-78
2022/08/25 20:52:12;;;;;;;3.92;2.83;;;22.90;78.20;;;;;;5066761;28;20183;-78
2022/08/25 20:54:38;;;;;;;8.45;3.15;;;22.90;78.00;;;;;;5060461;28;20198;-79
2022/08/25 20:57:04;;;;;;;5.18;2.97;;;22.90;78.20;;;;;;5057111;28;20630;-78
2022/08/25 20:59:31;;;;;;;3.20;2.83;;;22.90;78.00;;;;;;5055148;28;20206;-78
2022/08/25 21:01:57;;;;;;;3.10;2.53;;;22.90;77.90;;;;;;5057425;28;20184;-78
2022/08/25 21:04:24;;;;;;;3.05;2.53;;;22.80;77.60;;;;;;5054750;28;20222;-79
2022/08/25 21:06:50;;;;;;;3.08;2.53;;;22.80;78.00;;;;;;5055410;28;20188;-78
2022/08/25 21:09:21;;;;;;;3.65;2.97;;;22.80;77.90;;;;;;5053562;28;20180;-80
2022/08/25 21:11:51;;;;;;;4.05;2.80;;;22.70;77.70;;;;;;5051063;28;20187;-78
2022/08/25 21:14:18;;;;;;;12.45;2.97;;;22.60;78.10;;;;;;5052410;28;20199;-79
2022/08/25 21:16:45;;;;;;;3.20;2.30;;;22.50;78.00;;;;;;5051160;28;20232;-78
2022/08/25 21:19:13;;;;;;;11.80;3.00;;;22.40;77.60;;;;;;5049980;28;20183;-78
2022/08/25 21:21:39;;;;;;;7.22;2.92;;;22.50;78.00;;;;;;5055614;28;20210;-78
2022/08/25 21:24:04;;;;;;;5.25;2.58;;;22.50;78.60;;;;;;5055916;28;20248;-78
2022/08/25 21:26:31;;;;;;;4.78;2.72;;;22.40;78.20;;;;;;5055175;28;20190;-78
2022/08/25 21:29:02;;;;;;;8.52;2.60;;;22.40;78.00;;;;;;5047362;28;20187;-78
2022/08/25 21:31:29;;;;;;;3.40;2.67;;;22.40;78.20;;;;;;5047838;28;20207;-78
2022/08/25 21:33:56;;;;;;;5.10;2.38;;;22.40;78.30;;;;;;5053172;28;20195;-78
2022/08/25 21:36:24;;;;;;;3.97;2.55;;;22.50;78.50;;;;;;5050998;28;20179;-78
2022/08/25 21:38:50;;;;;;;3.80;2.35;;;22.50;78.60;;;;;;5043374;28;20192;-78
2022/08/25 21:41:24;;;;;;;10.60;3.25;;;22.50;78.60;;;;;;5052527;28;20187;-78
2022/08/25 21:43:50;;;;;;;8.25;2.70;;;22.50;78.40;;;;;;5050842;28;20361;-78
2022/08/25 21:46:22;;;;;;;4.63;2.17;;;22.40;78.40;;;;;;5048859;28;20722;-78
2022/08/25 21:48:48;;;;;;;6.57;2.20;;;22.30;77.70;;;;;;5052233;28;20268;-79
2022/08/25 21:51:23;;;;;;;4.38;2.05;;;22.20;78.40;;;;;;5056375;28;20178;-78
2022/08/25 21:53:49;;;;;;;3.72;2.25;;;22.20;78.50;;;;;;5051092;28;20208;-79
2022/08/25 21:56:18;;;;;;;2.28;1.83;;;22.20;78.40;;;;;;5045896;28;20263;-78
2022/08/25 21:58:46;;;;;;;5.38;2.85;;;22.30;78.40;;;;;;5050131;28;20736;-79
2022/08/25 22:01:16;;;;;;;9.68;2.25;;;22.30;78.50;;;;;;5053960;28;20258;-80
2022/08/25 22:03:43;;;;;;;6.57;1.98;;;22.20;78.00;;;;;;5047365;28;20294;-79
2022/08/25 22:06:10;;;;;;;4.53;1.98;;;22.10;78.40;;;;;;5050348;28;20187;-79
2022/08/25 22:08:37;;;;;;;7.10;2.25;;;22.10;78.40;;;;;;5052833;28;20185;-79
2022/08/25 22:11:05;;;;;;;5.28;2.17;;;22.20;78.10;;;;;;5054009;28;20188;-78
2022/08/25 22:13:32;;;;;;;3.78;1.80;;;22.10;78.00;;;;;;5049707;28;20180;-79
2022/08/25 22:15:57;;;;;;;7.78;1.92;;;22.10;78.10;;;;;;5048479;28;20191;-79
2022/08/25 22:18:23;;;;;;;9.07;2.30;;;22.20;77.90;;;;;;5047122;28;22007;-79
2022/08/25 22:20:50;;;;;;;4.93;2.10;;;22.20;77.70;;;;;;5047803;28;20187;-77
2022/08/25 22:23:17;;;;;;;6.15;2.42;;;22.20;77.90;;;;;;5053581;28;20244;-77
2022/08/25 22:25:43;;;;;;;6.82;2.30;;;22.30;77.90;;;;;;5044875;28;20215;-78
2022/08/25 22:28:09;;;;;;;4.72;1.85;;;22.30;77.60;;;;;;5049901;28;20644;-77
2022/08/25 22:30:37;;;;;;;2.63;1.95;;;22.30;77.60;;;;;;5051659;28;20183;-78
2022/08/25 22:33:03;;;;;;;3.38;2.13;;;22.20;77.40;;;;;;5051490;28;20575;-77
2022/08/25 22:35:31;;;;;;;5.50;2.10;;;22.20;77.40;;;;;;5056210;28;20236;-77
2022/08/25 22:37:58;;;;;;;4.20;2.05;;;22.30;77.60;;;;;;5049480;28;20188;-77
2022/08/25 22:40:24;;;;;;;8.98;2.47;;;22.20;77.30;;;;;;5049984;28;20241;-77
2022/08/25 22:42:50;;;;;;;3.67;2.42;;;22.20;77.50;;;;;;5051671;28;20188;-77
2022/08/25 22:45:16;;;;;;;14.98;2.80;;;22.20;77.50;;;;;;5047277;28;20614;-78
2022/08/25 22:47:42;;;;;;;8.95;2.25;;;22.10;77.30;;;;;;5050548;28;20183;-77
2022/08/25 22:50:08;;;;;;;3.08;2.15;;;22.10;77.50;;;;;;5051692;28;20270;-77
2022/08/25 22:52:34;;;;;;;6.75;2.60;;;22.10;77.80;;;;;;5057698;28;20695;-78
2022/08/25 22:55:01;;;;;;;2.25;2.05;;;22.10;77.60;;;;;;5050697;28;20183;-78
2022/08/25 22:57:27;;;;;;;5.13;1.75;;;22.10;77.70;;;;;;5085789;28;20688;-78
2022/08/25 22:59:55;;;;;;;6.65;1.85;;;22.10;77.60;;;;;;5049519;28;20191;-78
2022/08/25 23:02:21;;;;;;;7.15;2.00;;;22.00;77.80;;;;;;5084238;28;20183;-78
2022/08/25 23:04:47;;;;;;;2.53;2.00;;;22.00;77.80;;;;;;5049757;28;20215;-78
2022/08/25 23:07:13;;;;;;;2.15;1.63;;;21.90;77.60;;;;;;5049786;28;20181;-78
2022/08/25 23:09:39;;;;;;;11.15;2.00;;;21.90;77.70;;;;;;5050725;28;20724;-78
2022/08/25 23:12:05;;;;;;;7.10;2.58;;;21.90;78.00;;;;;;5052889;28;20194;-78
2022/08/25 23:14:36;;;;;;;2.47;1.65;;;21.90;77.90;;;;;;5049196;28;20261;-78
2022/08/25 23:17:03;;;;;;;11.05;2.15;;;21.90;77.70;;;;;;5053191;28;20575;-77
2022/08/25 23:19:29;;;;;;;3.22;1.58;;;21.80;77.80;;;;;;5050964;28;20956;-77
2022/08/25 23:22:16;;;;;;;3.45;1.48;;;21.80;77.90;;;;;;5053600;28;20214;-78
2022/08/25 23:24:46;;;;;;;5.80;1.80;;;21.80;77.70;;;;;;5052967;28;21631;-78
2022/08/25 23:27:15;;;;;;;5.68;1.80;;;21.80;77.80;;;;;;5051741;28;20202;-78
2022/08/25 23:29:43;;;;;;;7.45;2.08;;;21.80;77.80;;;;;;5054433;28;20233;-78
2022/08/25 23:32:12;;;;;;;6.88;1.90;;;21.80;77.80;;;;;;5048692;28;20568;-78
2022/08/25 23:34:40;;;;;;;3.17;1.77;;;21.80;78.00;;;;;;5047580;28;20191;-78
2022/08/25 23:37:06;;;;;;;4.75;2.05;;;21.80;78.00;;;;;;5047517;28;20194;-78
2022/08/25 23:39:33;;;;;;;4.53;2.10;;;21.80;78.00;;;;;;5048762;28;21000;-78
2022/08/25 23:41:58;;;;;;;6.07;1.80;;;21.80;78.30;;;;;;5049970;28;20176;-78
2022/08/25 23:44:24;;;;;;;2.65;2.08;;;21.80;78.40;;;;;;5047014;28;20207;-78
2022/08/25 23:46:50;;;;;;;4.45;1.67;;;21.80;78.80;;;;;;5049086;28;20195;-79
2022/08/25 23:49:19;;;;;;;1.70;1.60;;;21.70;78.70;;;;;;5049177;28;20233;-78
2022/08/25 23:51:47;;;;;;;4.03;2.10;;;21.70;78.60;;;;;;5049945;28;20383;-78
2022/08/25 23:54:12;;;;;;;3.40;2.17;;;21.70;78.60;;;;;;5049526;28;20194;-77
2022/08/25 23:56:39;;;;;;;7.93;2.15;;;21.70;78.90;;;;;;5047690;28;20183;-78
2022/08/25 23:59:05;;;;;;;3.13;1.90;;;21.70;78.70;;;;;;5050041;28;20245;-78
